createdAt,value
2023-04-09T00:00:37.034Z,7.54
2023-04-09T00:03:03.704Z,7.57
2023-04-09T00:05:30.578Z,7.54
2023-04-09T00:08:04.532Z,7.57
2023-04-09T00:10:31.122Z,7.57
2023-04-09T00:12:57.640Z,7.54
2023-04-09T00:15:30.744Z,7.50
2023-04-09T00:18:00.664Z,7.40
2023-04-09T00:20:27.138Z,7.46
2023-04-09T00:22:56.211Z,7.37
2023-04-09T00:25:22.544Z,7.34
2023-04-09T00:27:48.973Z,7.23
2023-04-09T00:30:15.790Z,7.24
2023-04-09T00:32:43.117Z,7.10
2023-04-09T00:35:09.721Z,7.23
2023-04-09T00:37:36.171Z,7.16
2023-04-09T00:40:03.200Z,6.99
2023-04-09T00:42:33.578Z,6.97
2023-04-09T00:45:00.695Z,6.96
2023-04-09T00:47:28.364Z,6.88
2023-04-09T00:49:55.930Z,6.85
2023-04-09T00:52:23.310Z,6.81
2023-04-09T00:54:55.047Z,6.84
2023-04-09T00:57:21.698Z,6.71
2023-04-09T00:59:50.514Z,6.76
2023-04-09T01:02:17.116Z,6.79
2023-04-09T01:04:44.374Z,6.71
2023-04-09T01:07:54.888Z,6.65
2023-04-09T01:10:46.700Z,6.55
2023-04-09T01:13:23.983Z,6.54
2023-04-09T01:15:59.324Z,6.55
2023-04-09T01:18:42.236Z,6.45
2023-04-09T01:21:17.996Z,6.49
2023-04-09T01:24:19.283Z,6.44
2023-04-09T01:26:57.266Z,6.38
2023-04-09T01:29:25.706Z,6.40
2023-04-09T01:31:54.066Z,6.37
2023-04-09T01:34:21.066Z,6.44
2023-04-09T01:36:52.909Z,6.33
2023-04-09T01:39:20.408Z,6.37
2023-04-09T01:41:47.406Z,6.49
2023-04-09T01:44:14.685Z,6.34
2023-04-09T01:46:41.792Z,6.23
2023-04-09T01:49:10.342Z,6.16
2023-04-09T01:51:39.119Z,6.14
2023-04-09T01:54:05.681Z,6.17
2023-04-09T01:56:45.763Z,6.21
2023-04-09T01:59:12.595Z,6.45
2023-04-09T02:01:46.573Z,6.40
2023-04-09T02:04:34.448Z,6.47
2023-04-09T02:07:15.290Z,6.48
2023-04-09T02:09:46.189Z,6.38
2023-04-09T02:12:18.967Z,6.42
2023-04-09T02:14:51.911Z,6.47
2023-04-09T02:17:19.366Z,6.45
2023-04-09T02:19:48.699Z,6.48
2023-04-09T02:22:16.401Z,6.38
2023-04-09T02:24:42.792Z,6.34
2023-04-09T02:27:09.306Z,6.35
2023-04-09T02:29:35.768Z,6.28
2023-04-09T02:32:02.220Z,6.20
2023-04-09T02:34:28.876Z,6.13
2023-04-09T02:36:55.585Z,6.06
2023-04-09T02:39:22.151Z,5.93
2023-04-09T02:41:48.591Z,5.90
2023-04-09T02:44:14.991Z,5.86
2023-04-09T02:46:49.363Z,5.79
2023-04-09T02:49:16.417Z,5.70
2023-04-09T02:51:42.810Z,5.70
2023-04-09T02:54:09.283Z,5.65
2023-04-09T02:56:35.939Z,5.70
2023-04-09T02:59:02.292Z,5.59
2023-04-09T03:01:28.725Z,5.60
2023-04-09T03:03:55.491Z,5.55
2023-04-09T03:06:22.036Z,5.46
2023-04-09T03:08:48.497Z,5.51
2023-04-09T03:11:15.807Z,5.48
2023-04-09T03:13:42.232Z,5.46
2023-04-09T03:16:10.188Z,5.39
2023-04-09T03:18:36.828Z,5.32
2023-04-09T03:21:10.307Z,5.37
2023-04-09T03:23:37.382Z,5.17
2023-04-09T03:26:05.860Z,5.07
2023-04-09T03:28:33.531Z,5.25
2023-04-09T03:31:00.354Z,5.10
2023-04-09T03:33:26.857Z,5.04
2023-04-09T03:35:53.348Z,5.07
2023-04-09T03:38:20.251Z,4.94
2023-04-09T03:40:46.825Z,4.91
2023-04-09T03:43:13.370Z,4.90
2023-04-09T03:45:39.948Z,4.80
2023-04-09T03:48:06.429Z,4.79
2023-04-09T03:50:40.887Z,4.75
2023-04-09T03:53:07.607Z,4.76
2023-04-09T03:55:34.223Z,4.72
2023-04-09T03:58:00.867Z,4.77
2023-04-09T04:00:27.368Z,4.72
2023-04-09T04:02:54.034Z,4.69
2023-04-09T04:05:24.098Z,4.56
2023-04-09T04:07:50.568Z,4.53
2023-04-09T04:10:17.044Z,4.46
2023-04-09T04:12:43.422Z,4.45
2023-04-09T04:15:10.151Z,4.62
2023-04-09T04:17:36.594Z,4.50
2023-04-09T04:20:04.016Z,4.50
2023-04-09T04:22:31.496Z,4.60
2023-04-09T04:24:57.874Z,4.44
2023-04-09T04:27:24.357Z,4.41
2023-04-09T04:29:50.914Z,4.34
2023-04-09T04:32:18.574Z,4.27
2023-04-09T04:34:49.983Z,4.25
2023-04-09T04:37:17.056Z,4.18
2023-04-09T04:39:46.029Z,4.24
2023-04-09T04:42:12.461Z,4.02
2023-04-09T04:44:38.925Z,3.97
2023-04-09T04:47:05.396Z,3.95
2023-04-09T04:49:31.914Z,4.04
2023-04-09T04:51:58.748Z,4.04
2023-04-09T04:54:25.354Z,4.07
2023-04-09T04:56:51.750Z,4.07
2023-04-09T04:59:21.145Z,4.02
2023-04-09T05:01:47.524Z,3.95
2023-04-09T05:04:13.914Z,4.01
2023-04-09T05:06:40.348Z,3.95
2023-04-09T05:09:06.782Z,3.91
2023-04-09T05:11:33.255Z,3.98
2023-04-09T05:14:00.344Z,3.99
2023-04-09T05:16:27.124Z,3.91
2023-04-09T05:18:53.985Z,3.98
2023-04-09T05:21:21.539Z,4.07
2023-04-09T05:23:47.944Z,4.15
2023-04-09T05:26:14.373Z,4.07
2023-04-09T05:28:41.355Z,4.29
2023-04-09T05:31:13.211Z,4.31
2023-04-09T05:33:40.201Z,4.36
2023-04-09T05:36:07.591Z,4.53
2023-04-09T05:38:34.863Z,4.44
2023-04-09T05:41:01.255Z,4.44
2023-04-09T05:43:27.720Z,4.52
2023-04-09T05:45:54.292Z,4.46
2023-04-09T05:48:21.033Z,4.77
2023-04-09T05:50:55.111Z,4.97
2023-04-09T05:53:22.858Z,5.07
2023-04-09T05:55:50.166Z,5.06
2023-04-09T05:58:21.164Z,5.14
2023-04-09T06:00:47.680Z,5.24
2023-04-09T06:03:14.148Z,5.39
2023-04-09T06:05:40.756Z,5.69
2023-04-09T06:08:10.465Z,5.79
2023-04-09T06:10:36.890Z,5.96
2023-04-09T06:13:06.153Z,6.06
2023-04-09T06:15:32.761Z,6.17
2023-04-09T06:17:59.573Z,6.38
2023-04-09T06:20:26.139Z,6.56
2023-04-09T06:22:52.589Z,6.68
2023-04-09T06:25:18.958Z,6.79
2023-04-09T06:27:45.445Z,6.95
2023-04-09T06:32:47.022Z,7.20
2023-04-09T06:35:20.038Z,7.27
2023-04-09T06:37:46.679Z,7.40
2023-04-09T06:40:14.921Z,7.48
2023-04-09T06:42:42.851Z,7.63
2023-04-09T06:45:10.025Z,7.72
2023-04-09T06:47:36.631Z,7.84
2023-04-09T06:50:03.562Z,7.92
2023-04-09T06:52:30.338Z,7.98
2023-04-09T06:54:56.803Z,8.13
2023-04-09T06:57:23.490Z,8.23
2023-04-09T06:59:49.892Z,8.33
2023-04-09T07:02:16.749Z,8.44
2023-04-09T07:04:43.294Z,8.70
2023-04-09T07:07:12.682Z,8.78
2023-04-09T07:09:41.606Z,8.95
2023-04-09T07:12:08.045Z,9.05
2023-04-09T07:14:34.464Z,9.14
2023-04-09T07:17:01.120Z,9.14
2023-04-09T07:19:27.567Z,9.33
2023-04-09T07:21:53.970Z,9.53
2023-04-09T07:24:20.649Z,9.70
2023-04-09T07:26:51.187Z,9.81
2023-04-09T07:29:20.738Z,10.08
2023-04-09T07:31:47.960Z,10.04
2023-04-09T07:34:14.791Z,10.12
2023-04-09T07:36:42.880Z,10.17
2023-04-09T07:39:10.844Z,10.91
2023-04-09T07:41:37.544Z,10.77
2023-04-09T07:44:04.328Z,11.41
2023-04-09T07:46:30.832Z,11.55
2023-04-09T07:48:57.223Z,11.37
2023-04-09T07:51:23.686Z,11.08
2023-04-09T07:53:50.385Z,11.24
2023-04-09T07:56:16.792Z,11.10
2023-04-09T07:58:43.512Z,11.31
2023-04-09T08:01:10.276Z,11.92
2023-04-09T08:03:37.141Z,12.26
2023-04-09T08:06:05.144Z,12.61
2023-04-09T08:08:31.637Z,13.00
2023-04-09T08:10:58.062Z,12.74
2023-04-09T08:13:25.436Z,13.65
2023-04-09T08:15:52.273Z,12.95
2023-04-09T08:18:18.720Z,12.40
2023-04-09T08:20:45.605Z,12.14
2023-04-09T08:23:12.520Z,12.21
2023-04-09T08:25:39.292Z,12.79
2023-04-09T08:28:08.487Z,13.97
2023-04-09T08:30:35.005Z,13.50
2023-04-09T08:33:02.104Z,13.30
2023-04-09T08:35:30.663Z,13.26
2023-04-09T08:37:57.633Z,13.16
2023-04-09T08:40:24.172Z,12.58
2023-04-09T08:42:57.890Z,13.42
2023-04-09T08:45:24.335Z,13.27
2023-04-09T08:47:52.010Z,13.93
2023-04-09T08:50:19.323Z,13.50
2023-04-09T08:52:48.270Z,14.46
2023-04-09T08:55:14.964Z,16.00
2023-04-09T08:57:41.953Z,15.34
2023-04-09T09:00:09.376Z,15.31
2023-04-09T09:02:36.147Z,14.91
2023-04-09T09:05:02.874Z,14.59
2023-04-09T09:07:30.679Z,14.88
2023-04-09T09:09:59.008Z,15.66
2023-04-09T09:12:42.955Z,13.71
2023-04-09T09:15:30.117Z,14.14
2023-04-09T09:17:58.626Z,14.39
2023-04-09T09:20:26.963Z,14.40
2023-04-09T09:22:55.732Z,14.63
2023-04-09T09:25:26.957Z,14.06
2023-04-09T09:27:55.407Z,15.49
2023-04-09T09:30:26.770Z,14.37
2023-04-09T09:32:54.671Z,13.95
2023-04-09T09:35:21.368Z,14.43
2023-04-09T09:37:48.085Z,15.89
2023-04-09T09:40:27.938Z,15.31
2023-04-09T09:42:56.296Z,15.39
2023-04-09T09:45:22.942Z,15.73
2023-04-09T09:47:49.849Z,15.82
2023-04-09T09:50:16.289Z,15.90
2023-04-09T09:52:46.066Z,15.97
2023-04-09T09:55:17.184Z,14.23
2023-04-09T09:57:47.233Z,14.19
2023-04-09T10:00:14.986Z,16.07
2023-04-09T10:02:48.095Z,16.27
2023-04-09T10:05:15.905Z,15.34
2023-04-09T10:07:43.650Z,15.62
2023-04-09T10:10:10.265Z,16.59
2023-04-09T10:12:37.321Z,17.02
2023-04-09T10:15:06.129Z,14.98
2023-04-09T10:17:32.850Z,18.27
2023-04-09T10:20:14.240Z,18.88
2023-04-09T10:22:45.598Z,17.78
2023-04-09T10:25:12.329Z,16.68
2023-04-09T10:27:38.738Z,16.41
2023-04-09T10:30:10.176Z,16.99
2023-04-09T10:32:36.829Z,19.64
2023-04-09T10:35:04.153Z,16.07
2023-04-09T10:37:30.906Z,16.67
2023-04-09T10:39:57.696Z,16.45
2023-04-09T10:42:30.015Z,15.58
2023-04-09T10:45:08.137Z,14.46
2023-04-09T10:47:36.573Z,14.14
2023-04-09T10:50:25.449Z,15.14
2023-04-09T10:52:54.112Z,15.43
2023-04-09T10:55:36.604Z,15.77
2023-04-09T10:58:05.478Z,15.86
2023-04-09T11:00:36.636Z,16.62
2023-04-09T11:03:04.246Z,17.44
2023-04-09T11:05:38.262Z,16.73
2023-04-09T11:08:09.882Z,15.39
2023-04-09T11:10:37.938Z,15.85
2023-04-09T11:13:05.373Z,16.57
2023-04-09T11:15:34.690Z,16.44
2023-04-09T11:18:02.158Z,17.09
2023-04-09T11:20:30.802Z,15.80
2023-04-09T11:22:59.067Z,16.06
2023-04-09T11:25:30.565Z,17.41
2023-04-09T11:27:57.089Z,17.59
2023-04-09T11:30:23.635Z,17.07
2023-04-09T11:32:51.176Z,15.96
2023-04-09T11:35:19.859Z,16.45
2023-04-09T11:37:46.945Z,16.24
2023-04-09T11:40:23.006Z,15.91
2023-04-09T11:42:51.012Z,15.55
2023-04-09T11:45:19.230Z,16.47
2023-04-09T11:47:46.650Z,17.00
2023-04-09T11:50:14.850Z,16.34
2023-04-09T11:52:44.637Z,16.11
2023-04-09T11:55:12.053Z,14.94
2023-04-09T11:57:44.721Z,15.27
2023-04-09T12:00:17.016Z,15.24
2023-04-09T12:02:49.043Z,15.14
2023-04-09T12:05:24.720Z,14.98
2023-04-09T12:07:56.353Z,14.93
2023-04-09T12:10:30.494Z,14.72
2023-04-09T12:13:02.606Z,14.95
2023-04-09T12:15:32.593Z,15.69
2023-04-09T12:17:59.708Z,15.45
2023-04-09T12:20:26.971Z,15.46
2023-04-09T12:22:53.478Z,14.81
2023-04-09T12:25:19.985Z,15.21
2023-04-09T12:27:47.706Z,15.24
2023-04-09T12:30:14.246Z,15.52
2023-04-09T12:32:42.874Z,15.11
2023-04-09T12:35:09.389Z,14.76
2023-04-09T12:37:35.820Z,15.35
2023-04-09T12:40:02.422Z,15.08
2023-04-09T12:42:28.963Z,15.49
2023-04-09T12:44:55.335Z,15.49
2023-04-09T12:47:21.806Z,15.51
2023-04-09T12:49:50.452Z,15.21
2023-04-09T12:52:18.608Z,14.95
2023-04-09T12:54:45.140Z,14.49
2023-04-09T12:57:11.631Z,14.85
2023-04-09T12:59:38.658Z,14.81
2023-04-09T13:02:05.424Z,15.28
2023-04-09T13:04:32.431Z,15.24
2023-04-09T13:06:59.066Z,15.73
2023-04-09T13:09:25.725Z,15.96
2023-04-09T13:11:52.416Z,15.43
2023-04-09T13:14:19.080Z,15.72
2023-04-09T13:16:45.641Z,15.00
2023-04-09T13:19:12.017Z,15.76
2023-04-09T13:21:38.367Z,16.62
2023-04-09T13:24:04.968Z,16.67
2023-04-09T13:26:31.859Z,15.48
2023-04-09T13:28:58.944Z,16.30
2023-04-09T13:31:25.494Z,15.34
2023-04-09T13:33:52.003Z,15.42
2023-04-09T13:36:18.415Z,15.11
2023-04-09T13:38:45.006Z,15.46
2023-04-09T13:41:11.514Z,15.28
2023-04-09T13:43:37.930Z,15.14
2023-04-09T13:46:04.928Z,15.25
2023-04-09T13:48:31.416Z,15.30
2023-04-09T13:50:58.012Z,15.69
2023-04-09T13:53:25.149Z,15.53
2023-04-09T13:55:51.649Z,15.10
2023-04-09T13:58:18.182Z,14.83
2023-04-09T14:00:44.826Z,14.87
2023-04-09T14:03:11.500Z,14.48
2023-04-09T14:05:37.962Z,14.53
2023-04-09T14:08:04.397Z,14.64
2023-04-09T14:10:30.985Z,15.07
2023-04-09T14:12:58.320Z,16.38
2023-04-09T14:15:24.867Z,15.66
2023-04-09T14:17:51.486Z,16.71
2023-04-09T14:20:19.994Z,17.78
2023-04-09T14:22:49.570Z,17.07
2023-04-09T14:25:16.698Z,16.54
2023-04-09T14:27:43.258Z,16.57
2023-04-09T14:30:10.691Z,16.47
2023-04-09T14:32:37.165Z,17.02
2023-04-09T14:35:03.878Z,16.51
2023-04-09T14:37:31.744Z,15.87
2023-04-09T14:39:58.180Z,15.39
2023-04-09T14:42:24.857Z,16.44
2023-04-09T14:44:51.395Z,16.57
2023-04-09T14:47:17.850Z,17.02
2023-04-09T14:49:44.296Z,17.09
2023-04-09T14:52:10.897Z,16.00
2023-04-09T14:54:37.875Z,15.62
2023-04-09T14:57:04.355Z,16.07
2023-04-09T14:59:31.045Z,15.51
2023-04-09T15:01:57.556Z,15.72
2023-04-09T15:04:24.416Z,15.83
2023-04-09T15:06:51.282Z,15.91
2023-04-09T15:09:17.848Z,15.87
2023-04-09T15:11:44.418Z,17.09
2023-04-09T15:14:10.767Z,16.95
2023-04-09T15:16:37.555Z,16.88
2023-04-09T15:19:04.256Z,17.69
2023-04-09T15:21:31.867Z,17.71
2023-04-09T15:23:59.039Z,16.76
2023-04-09T15:26:27.349Z,17.37
2023-04-09T15:29:02.298Z,16.72
2023-04-09T15:31:28.755Z,17.43
2023-04-09T15:33:55.248Z,16.62
2023-04-09T15:36:21.771Z,17.78
2023-04-09T15:38:48.539Z,18.22
2023-04-09T15:41:17.011Z,17.58
2023-04-09T15:43:43.464Z,18.78
2023-04-09T15:46:10.747Z,18.61
2023-04-09T15:48:38.697Z,17.77
2023-04-09T15:51:05.344Z,16.79
2023-04-09T15:53:31.980Z,16.88
2023-04-09T15:55:58.872Z,17.30
2023-04-09T15:58:25.760Z,17.92
2023-04-09T16:00:52.308Z,17.68
2023-04-09T16:03:19.368Z,17.58
2023-04-09T16:05:47.507Z,17.77
2023-04-09T16:08:14.557Z,17.75
2023-04-09T16:10:40.952Z,16.51
2023-04-09T16:13:07.389Z,17.40
2023-04-09T16:15:37.244Z,17.13
2023-04-09T16:18:03.817Z,16.89
2023-04-09T16:20:31.248Z,17.17
2023-04-09T16:22:57.654Z,17.31
2023-04-09T16:25:25.386Z,17.07
2023-04-09T16:27:52.098Z,18.08
2023-04-09T16:30:18.533Z,17.75
2023-04-09T16:32:45.019Z,16.44
2023-04-09T16:35:13.848Z,16.73
2023-04-09T16:37:40.500Z,16.95
2023-04-09T16:40:08.147Z,16.69
2023-04-09T16:42:34.628Z,16.67
2023-04-09T16:45:04.163Z,16.99
2023-04-09T16:47:31.772Z,16.52
2023-04-09T16:49:58.294Z,16.45
2023-04-09T16:52:24.843Z,16.80
2023-04-09T16:54:51.322Z,16.34
2023-04-09T16:57:17.769Z,15.97
2023-04-09T16:59:45.580Z,15.94
2023-04-09T17:02:12.070Z,16.00
2023-04-09T17:04:38.465Z,16.30
2023-04-09T17:07:05.153Z,16.18
2023-04-09T17:09:31.885Z,15.73
2023-04-09T17:11:58.375Z,15.85
2023-04-09T17:14:24.872Z,16.09
2023-04-09T17:16:53.692Z,15.77
2023-04-09T17:19:20.155Z,15.43
2023-04-09T17:21:46.653Z,15.24
2023-04-09T17:24:13.218Z,15.10
2023-04-09T17:26:39.735Z,14.91
2023-04-09T17:29:06.249Z,14.88
2023-04-09T17:31:32.985Z,14.79
2023-04-09T17:33:59.547Z,14.81
2023-04-09T17:36:26.440Z,14.79
2023-04-09T17:38:53.591Z,14.63
2023-04-09T17:41:20.148Z,14.56
2023-04-09T17:43:46.616Z,14.62
2023-04-09T17:46:13.125Z,14.48
2023-04-09T17:48:40.901Z,14.40
2023-04-09T17:51:07.439Z,14.22
2023-04-09T17:53:38.994Z,14.09
2023-04-09T17:57:35.942Z,13.91
2023-04-09T18:00:05.427Z,13.85
2023-04-09T18:02:32.616Z,13.78
2023-04-09T18:05:00.493Z,13.74
2023-04-09T18:07:30.352Z,13.67
2023-04-09T18:09:57.020Z,13.50
2023-04-09T18:12:23.765Z,13.29
2023-04-09T18:14:50.505Z,13.36
2023-04-09T18:17:17.426Z,13.19
2023-04-09T18:19:44.049Z,13.22
2023-04-09T18:22:10.515Z,13.16
2023-04-09T18:24:36.902Z,13.07
2023-04-09T18:27:03.470Z,12.95
2023-04-09T18:29:31.334Z,12.75
2023-04-09T18:31:58.514Z,12.81
2023-04-09T18:34:25.757Z,12.69
2023-04-09T18:36:53.858Z,12.60
2023-04-09T18:39:22.625Z,12.50
2023-04-09T18:41:49.313Z,12.54
2023-04-09T18:44:16.854Z,12.47
2023-04-09T18:46:43.372Z,12.44
2023-04-09T18:49:09.952Z,12.36
2023-04-09T18:51:36.602Z,12.26
2023-04-09T18:54:03.035Z,12.30
2023-04-09T18:56:29.396Z,12.26
2023-04-09T18:58:55.957Z,12.10
2023-04-09T19:01:23.242Z,12.02
2023-04-09T19:03:49.880Z,11.90
2023-04-09T19:06:19.284Z,11.93
2023-04-09T19:08:47.178Z,11.82
2023-04-09T19:11:14.398Z,11.75
2023-04-09T19:13:40.945Z,11.76
2023-04-09T19:16:10.857Z,11.63
2023-04-09T19:18:38.047Z,11.65
2023-04-09T19:21:07.796Z,11.58
2023-04-09T19:23:35.580Z,11.49
2023-04-09T19:26:03.132Z,11.42
2023-04-09T19:28:29.725Z,11.37
2023-04-09T19:30:56.433Z,11.38
2023-04-09T19:33:24.501Z,11.32
2023-04-09T19:35:52.406Z,11.27
2023-04-09T19:38:19.361Z,11.34
2023-04-09T19:40:46.350Z,11.28
2023-04-09T19:43:13.688Z,11.23
2023-04-09T19:45:42.320Z,11.24
2023-04-09T19:48:09.086Z,11.20
2023-04-09T19:50:40.821Z,11.08
2023-04-09T19:53:07.413Z,11.06
2023-04-09T19:55:34.792Z,10.99
2023-04-09T19:58:01.860Z,11.04
2023-04-09T20:00:28.621Z,10.90
2023-04-09T20:02:55.597Z,10.79
2023-04-09T20:05:22.336Z,10.72
2023-04-09T20:07:49.373Z,10.73
2023-04-09T20:10:16.308Z,10.79
2023-04-09T20:12:46.905Z,10.72
2023-04-09T20:15:14.797Z,10.55
2023-04-09T20:17:44.665Z,10.62
2023-04-09T20:20:12.073Z,10.55
2023-04-09T20:22:46.721Z,10.48
2023-04-09T20:25:16.609Z,10.50
2023-04-09T20:27:43.277Z,10.56
2023-04-09T20:30:10.320Z,10.44
2023-04-09T20:32:37.623Z,10.35
2023-04-09T20:35:05.369Z,10.33
2023-04-09T20:37:31.795Z,10.24
2023-04-09T20:39:59.359Z,10.18
2023-04-09T20:42:26.173Z,10.24
2023-04-09T20:44:52.767Z,10.24
2023-04-09T20:47:20.826Z,10.14
2023-04-09T20:49:51.170Z,10.24
2023-04-09T20:52:17.764Z,10.11
2023-04-09T20:54:46.219Z,10.07
2023-04-09T20:57:13.976Z,10.01
2023-04-09T20:59:40.672Z,9.81
2023-04-09T21:02:08.428Z,9.87
2023-04-09T21:04:35.036Z,9.93
2023-04-09T21:07:01.520Z,9.83
2023-04-09T21:09:28.970Z,9.83
2023-04-09T21:11:55.588Z,9.87
2023-04-09T21:14:22.276Z,9.87
2023-04-09T21:16:49.175Z,9.74
2023-04-09T21:19:15.846Z,9.71
2023-04-09T21:21:42.290Z,9.83
2023-04-09T21:24:08.854Z,9.81
2023-04-09T21:26:49.269Z,9.60
2023-04-09T21:29:17.379Z,9.71
2023-04-09T21:31:43.840Z,9.59
2023-04-09T21:34:10.663Z,9.57
2023-04-09T21:36:39.169Z,9.46
2023-04-09T21:39:06.845Z,9.31
2023-04-09T21:41:33.237Z,9.21
2023-04-09T21:44:03.597Z,9.21
2023-04-09T21:46:30.085Z,9.08
2023-04-09T21:48:56.875Z,9.07
2023-04-09T21:51:23.271Z,9.02
2023-04-09T21:53:49.837Z,8.98
2023-04-09T21:56:16.181Z,9.08
2023-04-09T21:58:42.612Z,9.18
2023-04-09T22:01:15.683Z,9.22
2023-04-09T22:03:45.711Z,9.10
2023-04-09T22:06:12.255Z,8.92
2023-04-09T22:08:52.826Z,8.97
2023-04-09T22:11:28.109Z,8.84
2023-04-09T22:13:57.876Z,8.71
2023-04-09T22:16:25.460Z,8.84
2023-04-09T22:18:53.368Z,8.70
2023-04-09T22:21:20.075Z,8.71
2023-04-09T22:23:46.522Z,8.73
2023-04-09T22:26:13.119Z,8.64
2023-04-09T22:28:39.577Z,8.54
2023-04-09T22:31:06.495Z,8.46
2023-04-09T22:33:33.020Z,8.59
2023-04-09T22:36:00.054Z,8.57
2023-04-09T22:38:26.645Z,8.47
2023-04-09T22:40:53.228Z,8.40
2023-04-09T22:43:19.800Z,8.40
2023-04-09T22:45:57.061Z,8.25
2023-04-09T22:48:24.623Z,8.30
2023-04-09T22:50:51.314Z,8.37
2023-04-09T22:53:19.350Z,8.39
2023-04-09T22:55:54.314Z,8.47
2023-04-09T22:58:21.131Z,8.47
2023-04-09T23:00:48.172Z,8.44
2023-04-09T23:03:15.041Z,8.46
2023-04-09T23:05:42.033Z,8.30
2023-04-09T23:08:08.959Z,8.29
2023-04-09T23:10:35.731Z,8.28
2023-04-09T23:13:02.352Z,8.19
2023-04-09T23:15:28.897Z,8.02
2023-04-09T23:17:55.712Z,7.92
2023-04-09T23:20:22.667Z,7.88
2023-04-09T23:22:49.699Z,7.72
2023-04-09T23:25:16.751Z,7.61
2023-04-09T23:27:43.458Z,7.65
2023-04-09T23:30:10.554Z,7.64
2023-04-09T23:32:37.241Z,7.67
2023-04-09T23:35:04.194Z,7.72
2023-04-09T23:37:31.227Z,7.48
2023-04-09T23:39:58.154Z,7.54
2023-04-09T23:42:26.099Z,7.48
2023-04-09T23:44:53.567Z,7.51
2023-04-09T23:47:19.960Z,7.42
2023-04-09T23:49:46.730Z,7.35
2023-04-09T23:52:13.587Z,7.43
2023-04-09T23:54:48.787Z,7.50
